sensor_id;sensor_type;location;lat;lon;timestamp;pressure;altitude;pressure_sealevel;temperature;humidity
14383;BME280;7275;50.328;8.720;2023-03-03T00:00:22;100127.19;;;10.08;28.16
14383;BME280;7275;50.328;8.720;2023-03-03T00:02:50;100138.66;;;10.07;28.30
14383;BME280;7275;50.328;8.720;2023-03-03T00:05:18;100133.38;;;10.07;28.20
14383;BME280;7275;50.328;8.720;2023-03-03T00:07:45;100133.47;;;10.04;28.15
14383;BME280;7275;50.328;8.720;2023-03-03T00:10:14;100135.28;;;10.02;28.53
14383;BME280;7275;50.328;8.720;2023-03-03T00:12:46;100142.38;;;10.00;28.55
14383;BME280;7275;50.328;8.720;2023-03-03T00:15:17;100141.59;;;9.97;28.67
14383;BME280;7275;50.328;8.720;2023-03-03T00:17:45;100131.06;;;9.95;28.62
14383;BME280;7275;50.328;8.720;2023-03-03T00:20:29;100140.81;;;9.93;28.89
14383;BME280;7275;50.328;8.720;2023-03-03T00:23:08;100149.72;;;9.91;29.19
14383;BME280;7275;50.328;8.720;2023-03-03T00:25:42;100141.84;;;9.88;29.09
14383;BME280;7275;50.328;8.720;2023-03-03T00:28:21;100141.03;;;9.86;29.13
14383;BME280;7275;50.328;8.720;2023-03-03T00:30:52;100143.75;;;9.83;29.32
14383;BME280;7275;50.328;8.720;2023-03-03T00:33:29;100148.19;;;9.82;29.71
14383;BME280;7275;50.328;8.720;2023-03-03T00:36:09;100146.44;;;9.81;29.59
14383;BME280;7275;50.328;8.720;2023-03-03T00:38:48;100150.00;;;9.79;29.49
14383;BME280;7275;50.328;8.720;2023-03-03T00:41:19;100147.41;;;9.77;29.66
14383;BME280;7275;50.328;8.720;2023-03-03T00:43:50;100150.94;;;9.78;29.76
14383;BME280;7275;50.328;8.720;2023-03-03T00:46:20;100151.00;;;9.76;29.88
14383;BME280;7275;50.328;8.720;2023-03-03T00:48:50;100140.44;;;9.76;29.65
14383;BME280;7275;50.328;8.720;2023-03-03T00:51:25;100146.53;;;9.78;29.83
14383;BME280;7275;50.328;8.720;2023-03-03T00:53:54;100149.19;;;9.77;29.85
14383;BME280;7275;50.328;8.720;2023-03-03T00:56:22;100157.16;;;9.75;30.07
14383;BME280;7275;50.328;8.720;2023-03-03T00:58:50;100152.00;;;9.71;29.99
14383;BME280;7275;50.328;8.720;2023-03-03T01:01:19;100149.41;;;9.69;30.28
14383;BME280;7275;50.328;8.720;2023-03-03T01:03:46;100153.00;;;9.66;30.40
14383;BME280;7275;50.328;8.720;2023-03-03T01:06:14;100154.81;;;9.64;30.30
14383;BME280;7275;50.328;8.720;2023-03-03T01:08:42;100154.84;;;9.63;30.10
14383;BME280;7275;50.328;8.720;2023-03-03T01:11:12;100154.84;;;9.63;30.58
14383;BME280;7275;50.328;8.720;2023-03-03T01:13:44;100149.63;;;9.60;30.40
14383;BME280;7275;50.328;8.720;2023-03-03T01:16:13;100139.13;;;9.58;30.42
14383;BME280;7275;50.328;8.720;2023-03-03T01:18:42;100137.44;;;9.56;30.42
14383;BME280;7275;50.328;8.720;2023-03-03T01:21:11;100136.53;;;9.57;30.45
14383;BME280;7275;50.328;8.720;2023-03-03T01:23:39;100140.06;;;9.56;30.52
14383;BME280;7275;50.328;8.720;2023-03-03T01:26:07;100146.28;;;9.53;30.69
14383;BME280;7275;50.328;8.720;2023-03-03T01:28:34;100135.81;;;9.50;30.60
14383;BME280;7275;50.328;8.720;2023-03-03T01:31:03;100137.63;;;9.48;30.77
14383;BME280;7275;50.328;8.720;2023-03-03T01:33:32;100133.25;;;9.47;30.73
14383;BME280;7275;50.328;8.720;2023-03-03T01:36:02;100138.63;;;9.44;31.14
14383;BME280;7275;50.328;8.720;2023-03-03T01:38:30;100140.44;;;9.42;30.90
14383;BME280;7275;50.328;8.720;2023-03-03T01:40:58;100134.34;;;9.39;30.99
14383;BME280;7275;50.328;8.720;2023-03-03T01:43:27;100140.56;;;9.38;31.14
14383;BME280;7275;50.328;8.720;2023-03-03T01:46:29;100143.25;;;9.35;31.03
14383;BME280;7275;50.328;8.720;2023-03-03T01:49:00;100137.25;;;9.28;31.01
14383;BME280;7275;50.328;8.720;2023-03-03T01:51:33;100134.63;;;9.28;31.52
14383;BME280;7275;50.328;8.720;2023-03-03T01:54:04;100140.81;;;9.27;31.35
14383;BME280;7275;50.328;8.720;2023-03-03T01:56:33;100134.66;;;9.27;31.43
14383;BME280;7275;50.328;8.720;2023-03-03T01:59:02;100136.47;;;9.25;31.40
14383;BME280;7275;50.328;8.720;2023-03-03T02:01:32;100134.72;;;9.25;31.45
14383;BME280;7275;50.328;8.720;2023-03-03T02:04:00;100132.13;;;9.22;31.43
14383;BME280;7275;50.328;8.720;2023-03-03T02:06:32;100133.94;;;9.20;31.49
14383;BME280;7275;50.328;8.720;2023-03-03T02:09:06;100132.28;;;9.18;31.63
14383;BME280;7275;50.328;8.720;2023-03-03T02:11:37;100125.31;;;9.15;31.62
14383;BME280;7275;50.328;8.720;2023-03-03T02:14:09;100135.91;;;9.12;31.76
14383;BME280;7275;50.328;8.720;2023-03-03T02:16:37;100124.53;;;9.10;31.84
14383;BME280;7275;50.328;8.720;2023-03-03T02:19:07;100129.03;;;9.07;31.88
14383;BME280;7275;50.328;8.720;2023-03-03T02:21:39;100139.63;;;9.05;31.89
14383;BME280;7275;50.328;8.720;2023-03-03T02:24:12;100138.78;;;9.03;32.30
14383;BME280;7275;50.328;8.720;2023-03-03T02:26:44;100146.81;;;8.99;32.00
14383;BME280;7275;50.328;8.720;2023-03-03T02:29:12;100139.88;;;8.95;32.14
14383;BME280;7275;50.328;8.720;2023-03-03T02:31:39;100141.66;;;8.94;31.96
14383;BME280;7275;50.328;8.720;2023-03-03T02:34:08;100144.34;;;8.91;32.24
14383;BME280;7275;50.328;8.720;2023-03-03T02:36:37;100139.16;;;8.88;32.29
14383;BME280;7275;50.328;8.720;2023-03-03T02:39:07;100136.56;;;8.85;32.46
14383;BME280;7275;50.328;8.720;2023-03-03T02:41:38;100134.88;;;8.82;32.28
14383;BME280;7275;50.328;8.720;2023-03-03T02:44:10;100139.31;;;8.82;32.45
14383;BME280;7275;50.328;8.720;2023-03-03T02:46:39;100142.88;;;8.79;32.33
14383;BME280;7275;50.328;8.720;2023-03-03T02:49:09;100135.84;;;8.78;32.53
14383;BME280;7275;50.328;8.720;2023-03-03T02:51:37;100144.72;;;8.76;32.52
14383;BME280;7275;50.328;8.720;2023-03-03T02:54:06;100148.28;;;8.73;32.52
14383;BME280;7275;50.328;8.720;2023-03-03T02:56:35;100146.63;;;8.69;32.51
14383;BME280;7275;50.328;8.720;2023-03-03T02:59:03;100143.16;;;8.67;32.87
14383;BME280;7275;50.328;8.720;2023-03-03T03:01:33;100151.13;;;8.64;32.82
14383;BME280;7275;50.328;8.720;2023-03-03T03:04:05;100140.63;;;8.63;32.91
14383;BME280;7275;50.328;8.720;2023-03-03T03:06:34;100135.38;;;8.61;32.86
14383;BME280;7275;50.328;8.720;2023-03-03T03:09:02;100138.94;;;8.59;32.93
14383;BME280;7275;50.328;8.720;2023-03-03T03:11:30;100138.97;;;8.57;33.05
14383;BME280;7275;50.328;8.720;2023-03-03T03:13:58;100133.78;;;8.54;32.98
14383;BME280;7275;50.328;8.720;2023-03-03T03:16:26;100141.69;;;8.54;33.01
14383;BME280;7275;50.328;8.720;2023-03-03T03:18:55;100151.38;;;8.52;33.12
14383;BME280;7275;50.328;8.720;2023-03-03T03:21:22;100152.31;;;8.50;33.05
14383;BME280;7275;50.328;8.720;2023-03-03T03:23:50;100158.50;;;8.47;33.12
14383;BME280;7275;50.328;8.720;2023-03-03T03:26:17;100148.09;;;8.41;32.97
14383;BME280;7275;50.328;8.720;2023-03-03T03:28:46;100162.19;;;8.40;33.33
14383;BME280;7275;50.328;8.720;2023-03-03T03:31:15;100161.41;;;8.35;33.35
14383;BME280;7275;50.328;8.720;2023-03-03T03:33:43;100165.84;;;8.33;33.49
14383;BME280;7275;50.328;8.720;2023-03-03T03:36:12;100156.31;;;8.28;33.40
14383;BME280;7275;50.328;8.720;2023-03-03T03:38:40;100165.94;;;8.29;33.56
14383;BME280;7275;50.328;8.720;2023-03-03T03:41:07;100166.00;;;8.26;33.54
14383;BME280;7275;50.328;8.720;2023-03-03T03:43:35;100176.53;;;8.24;33.56
14383;BME280;7275;50.328;8.720;2023-03-03T03:46:03;100171.38;;;8.20;33.66
14383;BME280;7275;50.328;8.720;2023-03-03T03:48:31;100174.94;;;8.17;33.67
14383;BME280;7275;50.328;8.720;2023-03-03T03:50:58;100174.09;;;8.15;33.61
14383;BME280;7275;50.328;8.720;2023-03-03T03:53:27;100178.53;;;8.12;33.70
14383;BME280;7275;50.328;8.720;2023-03-03T03:55:55;100174.22;;;8.09;33.71
14383;BME280;7275;50.328;8.720;2023-03-03T03:58:22;100176.06;;;8.04;33.72
14383;BME280;7275;50.328;8.720;2023-03-03T04:00:50;100171.72;;;8.01;34.02
14383;BME280;7275;50.328;8.720;2023-03-03T04:03:18;100177.97;;;7.96;33.94
14383;BME280;7275;50.328;8.720;2023-03-03T04:05:45;100168.41;;;7.92;33.94
14383;BME280;7275;50.328;8.720;2023-03-03T04:08:13;100166.72;;;7.88;33.74
14383;BME280;7275;50.328;8.720;2023-03-03T04:10:42;100170.28;;;7.85;33.98
14383;BME280;7275;50.328;8.720;2023-03-03T04:13:10;100173.91;;;7.80;33.87
14383;BME280;7275;50.328;8.720;2023-03-03T04:15:37;100177.50;;;7.76;33.69
14383;BME280;7275;50.328;8.720;2023-03-03T04:18:05;100172.31;;;7.71;33.79
14383;BME280;7275;50.328;8.720;2023-03-03T04:20:33;100174.97;;;7.68;34.08
14383;BME280;7275;50.328;8.720;2023-03-03T04:23:00;100177.66;;;7.67;34.36
14383;BME280;7275;50.328;8.720;2023-03-03T04:25:28;100173.28;;;7.66;34.21
14383;BME280;7275;50.328;8.720;2023-03-03T04:27:57;100168.97;;;7.62;34.50
14383;BME280;7275;50.328;8.720;2023-03-03T04:30:24;100176.09;;;7.57;34.28
14383;BME280;7275;50.328;8.720;2023-03-03T04:32:52;100173.50;;;7.54;34.33
14383;BME280;7275;50.328;8.720;2023-03-03T04:35:20;100181.41;;;7.52;34.42
14383;BME280;7275;50.328;8.720;2023-03-03T04:37:48;100180.50;;;7.53;34.84
14383;BME280;7275;50.328;8.720;2023-03-03T04:40:15;100177.88;;;7.55;34.75
14383;BME280;7275;50.328;8.720;2023-03-03T04:42:43;100186.59;;;7.57;34.82
14383;BME280;7275;50.328;8.720;2023-03-03T04:45:12;100190.09;;;7.57;34.98
14383;BME280;7275;50.328;8.720;2023-03-03T04:47:40;100187.44;;;7.57;34.99
14383;BME280;7275;50.328;8.720;2023-03-03T04:50:09;100196.19;;;7.61;35.08
14383;BME280;7275;50.328;8.720;2023-03-03T04:52:37;100192.66;;;7.60;34.86
14383;BME280;7275;50.328;8.720;2023-03-03T04:55:05;100190.91;;;7.61;34.97
14383;BME280;7275;50.328;8.720;2023-03-03T04:57:35;100197.06;;;7.61;35.15
14383;BME280;7275;50.328;8.720;2023-03-03T05:00:05;100192.63;;;7.63;35.36
14383;BME280;7275;50.328;8.720;2023-03-03T05:02:34;100190.84;;;7.64;35.22
14383;BME280;7275;50.328;8.720;2023-03-03T05:05:02;100195.16;;;7.68;35.15
14383;BME280;7275;50.328;8.720;2023-03-03T05:07:30;100196.91;;;7.69;35.29
14383;BME280;7275;50.328;8.720;2023-03-03T05:09:57;100198.63;;;7.70;35.17
14383;BME280;7275;50.328;8.720;2023-03-03T05:12:25;100195.13;;;7.71;35.37
14383;BME280;7275;50.328;8.720;2023-03-03T05:14:53;100192.44;;;7.72;35.18
14383;BME280;7275;50.328;8.720;2023-03-03T05:17:20;100187.19;;;7.72;35.29
14383;BME280;7275;50.328;8.720;2023-03-03T05:19:49;100194.19;;;7.73;35.27
14383;BME280;7275;50.328;8.720;2023-03-03T05:22:17;100194.16;;;7.75;35.29
14383;BME280;7275;50.328;8.720;2023-03-03T05:24:44;100189.75;;;7.77;35.42
14383;BME280;7275;50.328;8.720;2023-03-03T05:27:14;100198.44;;;7.80;35.30
14383;BME280;7275;50.328;8.720;2023-03-03T05:29:42;100185.34;;;7.77;35.53
14383;BME280;7275;50.328;8.720;2023-03-03T05:32:10;100193.25;;;7.77;35.59
14383;BME280;7275;50.328;8.720;2023-03-03T05:34:38;100192.41;;;7.75;35.51
14383;BME280;7275;50.328;8.720;2023-03-03T05:37:07;100196.78;;;7.75;35.80
14383;BME280;7275;50.328;8.720;2023-03-03T05:39:34;100198.56;;;7.74;35.47
14383;BME280;7275;50.328;8.720;2023-03-03T05:42:02;100203.81;;;7.76;35.63
14383;BME280;7275;50.328;8.720;2023-03-03T05:44:30;100211.63;;;7.79;35.87
14383;BME280;7275;50.328;8.720;2023-03-03T05:46:58;100213.34;;;7.81;35.74
14383;BME280;7275;50.328;8.720;2023-03-03T05:49:25;100210.69;;;7.83;35.77
14383;BME280;7275;50.328;8.720;2023-03-03T05:51:53;100217.66;;;7.85;35.74
14383;BME280;7275;50.328;8.720;2023-03-03T05:54:22;100219.38;;;7.88;35.96
14383;BME280;7275;50.328;8.720;2023-03-03T05:56:49;100226.34;;;7.89;35.76
14383;BME280;7275;50.328;8.720;2023-03-03T05:59:17;100227.22;;;7.89;35.83
14383;BME280;7275;50.328;8.720;2023-03-03T06:01:46;100238.63;;;7.90;35.90
14383;BME280;7275;50.328;8.720;2023-03-03T06:04:13;100237.75;;;7.89;35.87
14383;BME280;7275;50.328;8.720;2023-03-03T06:06:41;100243.91;;;7.90;35.88
14383;BME280;7275;50.328;8.720;2023-03-03T06:09:08;100239.50;;;7.90;36.04
14383;BME280;7275;50.328;8.720;2023-03-03T06:11:37;100236.81;;;7.93;35.90
14383;BME280;7275;50.328;8.720;2023-03-03T06:14:05;100240.25;;;7.97;36.06
14383;BME280;7275;50.328;8.720;2023-03-03T06:16:33;100247.19;;;8.01;35.91
14383;BME280;7275;50.328;8.720;2023-03-03T06:19:00;100242.78;;;8.01;35.91
14383;BME280;7275;50.328;8.720;2023-03-03T06:21:28;100246.22;;;8.06;36.06
14383;BME280;7275;50.328;8.720;2023-03-03T06:23:55;100257.53;;;8.12;36.12
14383;BME280;7275;50.328;8.720;2023-03-03T06:26:23;100256.56;;;8.17;35.90
14383;BME280;7275;50.328;8.720;2023-03-03T06:28:52;100257.41;;;8.19;35.98
14383;BME280;7275;50.328;8.720;2023-03-03T06:31:20;100256.53;;;8.19;35.87
14383;BME280;7275;50.328;8.720;2023-03-03T06:33:48;100261.75;;;8.20;35.91
14383;BME280;7275;50.328;8.720;2023-03-03T06:36:17;100268.78;;;8.21;36.00
14383;BME280;7275;50.328;8.720;2023-03-03T06:38:45;100272.28;;;8.22;36.12
14383;BME280;7275;50.328;8.720;2023-03-03T06:41:12;100272.25;;;8.23;36.01
14383;BME280;7275;50.328;8.720;2023-03-03T06:43:40;100284.53;;;8.26;36.10
14383;BME280;7275;50.328;8.720;2023-03-03T06:46:09;100288.00;;;8.26;36.27
14383;BME280;7275;50.328;8.720;2023-03-03T06:48:37;100295.06;;;8.26;36.22
14383;BME280;7275;50.328;8.720;2023-03-03T06:51:18;100299.38;;;8.28;36.51
14383;BME280;7275;50.328;8.720;2023-03-03T06:53:47;100297.63;;;8.29;36.19
14383;BME280;7275;50.328;8.720;2023-03-03T06:56:16;100307.19;;;8.33;36.19
14383;BME280;7275;50.328;8.720;2023-03-03T06:58:44;100308.91;;;8.35;36.00
14383;BME280;7275;50.328;8.720;2023-03-03T07:01:15;100321.19;;;8.36;36.45
14383;BME280;7275;50.328;8.720;2023-03-03T07:03:43;100314.09;;;8.40;36.30
14383;BME280;7275;50.328;8.720;2023-03-03T07:06:20;100316.69;;;8.41;36.57
14383;BME280;7275;50.328;8.720;2023-03-03T07:08:49;100319.25;;;8.46;36.24
14383;BME280;7275;50.328;8.720;2023-03-03T07:11:19;100326.19;;;8.50;36.61
14383;BME280;7275;50.328;8.720;2023-03-03T07:13:49;100322.59;;;8.54;36.40
14383;BME280;7275;50.328;8.720;2023-03-03T07:16:19;100324.25;;;8.61;36.45
14383;BME280;7275;50.328;8.720;2023-03-03T07:18:51;100325.91;;;8.65;36.36
14383;BME280;7275;50.328;8.720;2023-03-03T07:21:21;100324.03;;;8.70;36.45
14383;BME280;7275;50.328;8.720;2023-03-03T07:23:51;100334.50;;;8.74;36.25
14383;BME280;7275;50.328;8.720;2023-03-03T07:26:20;100336.25;;;8.75;36.40
14383;BME280;7275;50.328;8.720;2023-03-03T07:28:52;100339.75;;;8.74;36.42
14383;BME280;7275;50.328;8.720;2023-03-03T07:31:30;100345.06;;;8.73;36.54
14383;BME280;7275;50.328;8.720;2023-03-03T07:34:01;100359.19;;;8.70;36.45
14383;BME280;7275;50.328;8.720;2023-03-03T07:36:35;100352.16;;;8.71;36.52
14383;BME280;7275;50.328;8.720;2023-03-03T07:39:30;100345.94;;;8.73;36.56
14383;BME280;7275;50.328;8.720;2023-03-03T07:42:06;100344.06;;;8.80;36.38
14383;BME280;7275;50.328;8.720;2023-03-03T07:44:41;100351.81;;;8.88;36.30
14383;BME280;7275;50.328;8.720;2023-03-03T07:47:18;100354.31;;;8.94;36.61
14383;BME280;7275;50.328;8.720;2023-03-03T07:49:46;100352.47;;;8.99;36.39
14383;BME280;7275;50.328;8.720;2023-03-03T07:52:36;100358.59;;;9.01;36.36
14383;BME280;7275;50.328;8.720;2023-03-03T07:55:22;100365.56;;;9.02;36.40
14383;BME280;7275;50.328;8.720;2023-03-03T07:57:53;100369.97;;;9.03;36.52
14383;BME280;7275;50.328;8.720;2023-03-03T08:03:27;100367.13;;;9.12;36.28
14383;BME280;7275;50.328;8.720;2023-03-03T08:05:54;100366.19;;;9.14;36.37
14383;BME280;7275;50.328;8.720;2023-03-03T08:08:27;100370.47;;;9.21;36.41
14383;BME280;7275;50.328;8.720;2023-03-03T08:10:57;100370.31;;;9.27;36.30
14383;BME280;7275;50.328;8.720;2023-03-03T08:13:28;100364.91;;;9.33;36.19
14383;BME280;7275;50.328;8.720;2023-03-03T08:16:23;100364.72;;;9.41;36.16
14383;BME280;7275;50.328;8.720;2023-03-03T08:19:00;100358.44;;;9.48;36.19
14383;BME280;7275;50.328;8.720;2023-03-03T08:21:28;100364.44;;;9.54;36.07
14383;BME280;7275;50.328;8.720;2023-03-03T08:23:57;100365.22;;;9.58;36.54
14383;BME280;7275;50.328;8.720;2023-03-03T08:26:25;100365.06;;;9.65;36.42
14383;BME280;7275;50.328;8.720;2023-03-03T08:28:53;100371.88;;;9.76;35.94
14383;BME280;7275;50.328;8.720;2023-03-03T08:31:21;100369.81;;;9.88;36.15
14383;BME280;7275;50.328;8.720;2023-03-03T08:34:07;100360.66;;;10.03;36.26
14383;BME280;7275;50.328;8.720;2023-03-03T08:36:35;100361.97;;;10.22;36.44
14383;BME280;7275;50.328;8.720;2023-03-03T08:39:04;100359.78;;;10.37;36.34
14383;BME280;7275;50.328;8.720;2023-03-03T08:41:31;100362.91;;;10.53;35.91
14383;BME280;7275;50.328;8.720;2023-03-03T08:43:59;100365.06;;;10.71;36.10
14383;BME280;7275;50.328;8.720;2023-03-03T08:46:26;100362.66;;;10.94;35.90
14383;BME280;7275;50.328;8.720;2023-03-03T08:48:54;100361.22;;;11.12;35.80
14383;BME280;7275;50.328;8.720;2023-03-03T08:51:23;100351.09;;;11.27;36.02
14383;BME280;7275;50.328;8.720;2023-03-03T08:53:51;100363.19;;;11.36;35.32
14383;BME280;7275;50.328;8.720;2023-03-03T08:56:19;100376.19;;;11.44;35.65
14383;BME280;7275;50.328;8.720;2023-03-03T08:58:46;100375.09;;;11.51;35.53
14383;BME280;7275;50.328;8.720;2023-03-03T09:01:27;100378.50;;;11.54;35.21
14383;BME280;7275;50.328;8.720;2023-03-03T09:03:55;100373.81;;;11.64;35.22
14383;BME280;7275;50.328;8.720;2023-03-03T09:06:24;100369.31;;;11.67;35.20
14383;BME280;7275;50.328;8.720;2023-03-03T09:08:52;100365.59;;;11.73;34.78
14383;BME280;7275;50.328;8.720;2023-03-03T09:11:23;100371.50;;;11.81;35.20
14383;BME280;7275;50.328;8.720;2023-03-03T09:13:54;100367.56;;;11.94;34.89
14383;BME280;7275;50.328;8.720;2023-03-03T09:16:29;100376.84;;;12.07;34.93
14383;BME280;7275;50.328;8.720;2023-03-03T09:19:15;100382.56;;;12.21;34.87
14383;BME280;7275;50.328;8.720;2023-03-03T09:21:46;100374.25;;;12.32;34.50
14383;BME280;7275;50.328;8.720;2023-03-03T09:24:22;100370.28;;;12.45;34.62
14383;BME280;7275;50.328;8.720;2023-03-03T09:26:50;100381.00;;;12.66;34.62
14383;BME280;7275;50.328;8.720;2023-03-03T09:29:25;100379.34;;;12.89;34.33
14383;BME280;7275;50.328;8.720;2023-03-03T09:31:55;100377.59;;;13.35;34.39
14383;BME280;7275;50.328;8.720;2023-03-03T09:34:26;100372.41;;;13.79;34.06
14383;BME280;7275;50.328;8.720;2023-03-03T09:36:56;100372.47;;;14.20;33.93
14383;BME280;7275;50.328;8.720;2023-03-03T09:39:26;100371.25;;;14.69;33.61
14383;BME280;7275;50.328;8.720;2023-03-03T09:42:36;100359.16;;;15.60;33.64
14383;BME280;7275;50.328;8.720;2023-03-03T09:48:23;100356.59;;;17.31;32.31
14383;BME280;7275;50.328;8.720;2023-03-03T09:51:07;100359.06;;;18.29;32.05
14383;BME280;7275;50.328;8.720;2023-03-03T09:53:49;100364.75;;;19.12;31.17
14383;BME280;7275;50.328;8.720;2023-03-03T09:56:24;100371.78;;;19.43;30.51
14383;BME280;7275;50.328;8.720;2023-03-03T09:59:04;100376.06;;;19.31;29.81
14383;BME280;7275;50.328;8.720;2023-03-03T10:02:07;100391.09;;;18.76;29.50
14383;BME280;7275;50.328;8.720;2023-03-03T10:04:55;100398.84;;;18.51;29.79
14383;BME280;7275;50.328;8.720;2023-03-03T10:07:36;100395.25;;;18.81;29.99
14383;BME280;7275;50.328;8.720;2023-03-03T10:10:16;100383.25;;;19.73;29.79
14383;BME280;7275;50.328;8.720;2023-03-03T10:12:58;100392.53;;;20.49;29.21
14383;BME280;7275;50.328;8.720;2023-03-03T10:15:38;100388.31;;;20.84;28.70
14383;BME280;7275;50.328;8.720;2023-03-03T10:18:18;100387.81;;;20.92;28.10
14383;BME280;7275;50.328;8.720;2023-03-03T10:21:01;100393.78;;;21.22;28.11
14383;BME280;7275;50.328;8.720;2023-03-03T10:23:47;100395.69;;;21.83;27.86
14383;BME280;7275;50.328;8.720;2023-03-03T10:26:28;100389.75;;;22.26;27.57
14383;BME280;7275;50.328;8.720;2023-03-03T10:29:23;100392.13;;;22.89;26.75
14383;BME280;7275;50.328;8.720;2023-03-03T10:32:17;100386.97;;;23.43;26.32
14383;BME280;7275;50.328;8.720;2023-03-03T10:35:19;100384.16;;;23.89;26.24
14383;BME280;7275;50.328;8.720;2023-03-03T10:37:57;100389.19;;;24.47;25.86
14383;BME280;7275;50.328;8.720;2023-03-03T10:40:33;100387.88;;;25.05;25.20
14383;BME280;7275;50.328;8.720;2023-03-03T10:43:15;100391.34;;;24.76;24.78
14383;BME280;7275;50.328;8.720;2023-03-03T10:46:08;100390.38;;;24.34;24.36
14383;BME280;7275;50.328;8.720;2023-03-03T10:48:52;100393.97;;;23.90;24.63
14383;BME280;7275;50.328;8.720;2023-03-03T10:51:32;100395.81;;;24.01;24.52
14383;BME280;7275;50.328;8.720;2023-03-03T10:54:14;100384.66;;;24.48;24.50
14383;BME280;7275;50.328;8.720;2023-03-03T10:56:50;100392.34;;;25.36;24.37
14383;BME280;7275;50.328;8.720;2023-03-03T10:59:40;100383.63;;;26.43;23.85
14383;BME280;7275;50.328;8.720;2023-03-03T11:02:16;100375.63;;;27.08;22.98
14383;BME280;7275;50.328;8.720;2023-03-03T11:05:02;100374.91;;;27.35;22.80
14383;BME280;7275;50.328;8.720;2023-03-03T11:07:38;100372.56;;;27.40;22.49
14383;BME280;7275;50.328;8.720;2023-03-03T11:10:17;100376.66;;;27.90;22.22
14383;BME280;7275;50.328;8.720;2023-03-03T11:12:53;100374.22;;;28.41;21.96
14383;BME280;7275;50.328;8.720;2023-03-03T11:15:38;100370.28;;;28.89;21.53
14383;BME280;7275;50.328;8.720;2023-03-03T11:18:24;100365.59;;;29.42;21.24
14383;BME280;7275;50.328;8.720;2023-03-03T11:21:02;100363.84;;;29.92;20.74
14383;BME280;7275;50.328;8.720;2023-03-03T11:23:44;100367.41;;;30.35;20.38
14383;BME280;7275;50.328;8.720;2023-03-03T11:26:20;100358.94;;;30.78;20.31
14383;BME280;7275;50.328;8.720;2023-03-03T11:29:02;100354.34;;;31.03;19.60
14383;BME280;7275;50.328;8.720;2023-03-03T11:31:38;100354.31;;;31.27;19.44
14383;BME280;7275;50.328;8.720;2023-03-03T11:34:20;100357.53;;;31.46;18.99
14383;BME280;7275;50.328;8.720;2023-03-03T11:36:57;100357.34;;;31.64;18.97
14383;BME280;7275;50.328;8.720;2023-03-03T11:39:28;100356.31;;;31.57;18.73
14383;BME280;7275;50.328;8.720;2023-03-03T11:42:01;100353.09;;;31.53;18.52
14383;BME280;7275;50.328;8.720;2023-03-03T11:44:36;100348.63;;;31.52;18.53
14383;BME280;7275;50.328;8.720;2023-03-03T11:47:13;100353.75;;;31.56;18.41
14383;BME280;7275;50.328;8.720;2023-03-03T11:49:47;100343.97;;;31.69;18.38
14383;BME280;7275;50.328;8.720;2023-03-03T11:52:23;100343.13;;;31.69;18.19
14383;BME280;7275;50.328;8.720;2023-03-03T11:54:59;100335.38;;;31.80;18.24
14383;BME280;7275;50.328;8.720;2023-03-03T11:57:31;100319.06;;;32.03;18.01
14383;BME280;7275;50.328;8.720;2023-03-03T12:00:15;100327.34;;;32.17;17.73
14383;BME280;7275;50.328;8.720;2023-03-03T12:03:10;100320.31;;;32.23;17.91
14383;BME280;7275;50.328;8.720;2023-03-03T12:05:52;100322.38;;;32.21;17.75
14383;BME280;7275;50.328;8.720;2023-03-03T12:08:44;100321.34;;;32.22;17.74
14383;BME280;7275;50.328;8.720;2023-03-03T12:11:20;100313.47;;;32.19;17.39
14383;BME280;7275;50.328;8.720;2023-03-03T12:13:56;100312.88;;;32.31;17.37
14383;BME280;7275;50.328;8.720;2023-03-03T12:16:37;100305.66;;;32.39;17.26
14383;BME280;7275;50.328;8.720;2023-03-03T12:19:14;100298.50;;;32.38;17.24
14383;BME280;7275;50.328;8.720;2023-03-03T12:22:01;100300.94;;;32.55;17.01
14383;BME280;7275;50.328;8.720;2023-03-03T12:24:48;100299.06;;;32.56;16.88
14383;BME280;7275;50.328;8.720;2023-03-03T12:27:23;100293.97;;;32.67;17.09
14383;BME280;7275;50.328;8.720;2023-03-03T12:30:02;100289.03;;;32.85;17.08
14383;BME280;7275;50.328;8.720;2023-03-03T12:32:49;100298.50;;;32.97;16.94
14383;BME280;7275;50.328;8.720;2023-03-03T12:35:28;100289.13;;;33.15;16.59
14383;BME280;7275;50.328;8.720;2023-03-03T12:38:06;100291.66;;;33.31;16.29
14383;BME280;7275;50.328;8.720;2023-03-03T12:40:40;100297.75;;;33.55;16.26
14383;BME280;7275;50.328;8.720;2023-03-03T12:43:22;100285.09;;;33.90;16.35
14383;BME280;7275;50.328;8.720;2023-03-03T12:45:59;100285.00;;;33.98;15.98
14383;BME280;7275;50.328;8.720;2023-03-03T12:48:37;100280.78;;;33.81;15.76
14383;BME280;7275;50.328;8.720;2023-03-03T12:51:15;100272.06;;;33.77;16.01
14383;BME280;7275;50.328;8.720;2023-03-03T12:53:59;100264.44;;;33.73;15.53
14383;BME280;7275;50.328;8.720;2023-03-03T12:56:34;100267.09;;;33.66;15.81
14383;BME280;7275;50.328;8.720;2023-03-03T12:59:10;100270.69;;;33.67;15.79
14383;BME280;7275;50.328;8.720;2023-03-03T13:01:55;100267.75;;;33.68;15.49
14383;BME280;7275;50.328;8.720;2023-03-03T13:04:32;100260.88;;;33.58;15.63
14383;BME280;7275;50.328;8.720;2023-03-03T13:07:08;100249.44;;;33.54;15.71
14383;BME280;7275;50.328;8.720;2023-03-03T13:09:54;100257.69;;;33.46;15.79
14383;BME280;7275;50.328;8.720;2023-03-03T13:12:30;100252.53;;;33.51;15.58
14383;BME280;7275;50.328;8.720;2023-03-03T13:15:06;100250.63;;;33.66;15.28
14383;BME280;7275;50.328;8.720;2023-03-03T13:17:50;100250.56;;;33.60;15.40
14383;BME280;7275;50.328;8.720;2023-03-03T13:20:26;100249.41;;;33.69;15.57
14383;BME280;7275;50.328;8.720;2023-03-03T13:23:04;100245.41;;;33.71;15.20
14383;BME280;7275;50.328;8.720;2023-03-03T13:25:49;100233.88;;;33.61;15.22
14383;BME280;7275;50.328;8.720;2023-03-03T13:28:23;100240.34;;;33.39;15.36
14383;BME280;7275;50.328;8.720;2023-03-03T13:30:59;100243.63;;;33.35;15.60
14383;BME280;7275;50.328;8.720;2023-03-03T13:33:30;100242.97;;;33.47;15.50
14383;BME280;7275;50.328;8.720;2023-03-03T13:36:02;100239.19;;;33.63;15.51
14383;BME280;7275;50.328;8.720;2023-03-03T13:38:36;100245.03;;;33.74;15.40
14383;BME280;7275;50.328;8.720;2023-03-03T13:41:13;100239.44;;;33.82;15.11
14383;BME280;7275;50.328;8.720;2023-03-03T13:43:45;100245.13;;;33.81;15.30